Kingston, WA

8:42 AM PDT on April 26, 2015 (GMT -0700)
KWAKINGS19 | | Change Station
CLOSE
Current Station
Personal Weather Station
Location: Kingston, WA
Elevation: 200 ft
Nearby Weather Stations

Elev 200 ft 47.79 °N, 122.55 °W | Updated 3 seconds ago

Overcast
Overcast
44.6 °F
Feels Like 43 °F
N
3.5
Wind Variable Wind from SSE
Gusts 3.5 mph

Today
High -- | Low -- °F
--% Chance of Precip.
Yesterday
High -- | Low -- °F
Precip. -- in
6:01 AM 8:15 PM
First Quarter, 56% visible
Pressure 30.19 in
Visibility 10.0 miles
Clouds Clear
Windchill 43 °F
Dew Point 43 °F
Humidity 93%
Rainfall 0.00 in
Snow Depth Not available.
UV 1 out of 12
Pollen 9.40 out of 12
Air Quality Not available.
Flu Activity Regional
METAR KPAE 261453Z 15007KT 10SM CLR 06/02 A3017 RMK AO2 SLP221 T00610017 53015

More Conditions Fewer Conditions

Pressure 30.19 in
Visibility 10.0 miles
Clouds Clear
Windchill 43 °F
Dew Point 43 °F
Humidity 93%
Rainfall 0.00 in
Snow Depth Not available.
UV 1 out of 12
Pollen 9.40 out of 12
Air Quality Not available.
Flu Activity Regional
METAR KPAE 261453Z 15007KT 10SM CLR 06/02 A3017 RMK AO2 SLP221 T00610017 53015

More Conditions Fewer Conditions

The full scope of the disaster following a powerful 7.8-magnitude earthquake in Nepal may not come into view for days, but global charities are already sending emergency aid. Click to see how you can help.

10-Day Weather Forecast

Almanac

Astronomy

Apr. 26, 2015 Rise Set
Actual Time
Civil Twilight
Nautical Twilight
Astronomical Twilight
Moon
Length of Visible Light
Length of Day
Tomorrow will be .
, % of the Moon is Illuminated

Today's Extremes

State Highs State Lows

Community

WunderPhotos

Upload Photos

1,817,043 photos uploaded!

WunderBlogs® & News

Nearby

Air Quality

  Air Quality AQ Index Pollutant
Not available.

Snow Depth

Station Depth Elevation

Earthquake Activity

City Distance Mag. Time & Date
Minimum magnitude displayed is 2.5.

Coastal Water Temperatures

Place Temperature

Stations

Nearby Weather Stations

Station Location Temp. Windchill Dew Point Humidity Wind Precip. Elev Updated Type